Weather History for KAXS - November, 2012

Change the Weather History Date:

Friday, November 9, 2012

  Actual Average (KLTS) Record (KLTS)
Temperature  
Mean Temperature 70 °F -  
Max Temperature 86 °F 61 °F 85 °F (2012)
Min Temperature 55 °F 40 °F 30 °F (2000)
Cooling Degree Days 6    
Growing Degree Days 20 (Base 50)    
Moisture  
Dew Point 52 °F    
Average Humidity 53    
Maximum Humidity 82    
Minimum Humidity 25    
Precipitation  
Precipitation 0.00 in - - ()
Sea Level Pressure  
Sea Level Pressure 29.85 in    
Wind  
Wind Speed 13 mph (South)    
Max Wind Speed 24 mph    
Max Gust Speed 30 mph    
Visibility 10 miles    
Events      
Averages and records for this station are not official NWS values.
T = Trace of Precipitation, MM = Missing Value Source: NWS Daily Summary

Daily Weather History Graph

Daily Weather History Graph

Search for Another Location

Airport or City:

Trip Planner

Search our weather history database for the weather conditions in past years. The results will help you decide how hot, cold, wet, or windy it might be!

Date:

Astronomy

Nov. 09, 2012 Rise Set
Actual Time 7:05 AM CST 5:36 PM CST
Civil Twilight 6:39 AM CST 6:02 PM CST
Nautical Twilight 6:09 AM CST 6:32 PM CST
Astronomical Twilight 5:39 AM CST 7:02 PM CST
Moon 2:17 AM CST (11/9) 2:40 PM CST (11/9)
Length of Visible Light 11h 23m
Length of Day
10h 30m
Waning Crescent, 23% of the Moon is Illuminated
Nov 9
Waning Crescent
Nov 13
New
Nov 20
First Quarter
Nov 28
Full
Dec 6
Last Quarter

Hourly Weather History & Observations

Time (CST) Temp. Heat Index Dew Point Humidity Pressure Visibility Wind Dir Wind Speed Gust Speed Precip Events Conditions
12:15 AM 69.8 °F - 51.8 °F 53% 29.88 in 10.0 mi South 12.7 mph 17.3 mph N/A   Clear
12:55 AM 69.8 °F - 51.8 °F 53% 29.89 in 10.0 mi South 10.4 mph - N/A   Clear
1:15 AM 69.8 °F - 51.8 °F 53% 29.89 in 10.0 mi SSW 8.1 mph - N/A   Clear
1:35 AM 68.0 °F - 51.8 °F 56% 29.89 in 10.0 mi South 8.1 mph - N/A   Clear
1:55 AM 68.0 °F - 51.8 °F 56% 29.89 in 10.0 mi South 9.2 mph - N/A   Clear
2:15 AM 68.0 °F - 51.8 °F 56% 29.89 in 10.0 mi South 10.4 mph - N/A   Clear
2:35 AM 66.2 °F - 51.8 °F 60% 29.90 in 10.0 mi South 8.1 mph - N/A   Clear
3:15 AM 64.4 °F - 51.8 °F 64% 29.89 in 10.0 mi SSE 6.9 mph - N/A   Clear
3:35 AM 62.6 °F - 51.8 °F 68% 29.89 in 10.0 mi SSE 8.1 mph - N/A   Clear
3:55 AM 60.8 °F - 51.8 °F 72% 29.89 in 10.0 mi SSE 8.1 mph - N/A   Clear
4:15 AM 60.8 °F - 51.8 °F 72% 29.89 in 10.0 mi SE 6.9 mph - N/A   Clear
4:35 AM 59.0 °F - 51.8 °F 77% 29.89 in 10.0 mi SE 6.9 mph - N/A   Clear
4:55 AM 59.0 °F - 51.8 °F 77% 29.89 in 10.0 mi ESE 6.9 mph - N/A   Clear
5:15 AM 59.0 °F - 51.8 °F 77% 29.90 in 10.0 mi ESE 8.1 mph - N/A   Clear
5:35 AM 59.0 °F - 51.8 °F 77% 29.90 in 10.0 mi ESE 8.1 mph - N/A   Clear
5:55 AM 55.4 °F - 50.0 °F 82% 29.90 in 10.0 mi SE 8.1 mph - N/A   Clear
6:15 AM 57.2 °F - 51.8 °F 82% 29.90 in 10.0 mi SE 8.1 mph - N/A   Clear
6:35 AM 55.4 °F - 50.0 °F 82% 29.90 in 10.0 mi ESE 8.1 mph - N/A   Clear
6:55 AM 57.2 °F - 50.0 °F 77% 29.90 in 10.0 mi SE 10.4 mph - N/A   Clear
7:15 AM 55.4 °F - 50.0 °F 82% 29.90 in 10.0 mi ESE 6.9 mph - N/A   Clear
7:35 AM 55.4 °F - 50.0 °F 82% 29.91 in 10.0 mi SE 9.2 mph - N/A   Clear
7:55 AM 57.2 °F - 51.8 °F 82% 29.91 in 10.0 mi SE 9.2 mph - N/A   Clear
8:15 AM 59.0 °F - 51.8 °F 77% 29.92 in 10.0 mi SE 8.1 mph - N/A   Clear
8:35 AM 60.8 °F - 53.6 °F 77% 29.92 in 10.0 mi SE 12.7 mph - N/A   Clear
9:15 AM 64.4 °F - 55.4 °F 73% 29.92 in 10.0 mi SSE 13.8 mph 18.4 mph N/A   Clear
9:35 AM 68.0 °F - 55.4 °F 64% 29.92 in 10.0 mi South 16.1 mph - N/A   Clear
9:55 AM 69.8 °F - 55.4 °F 60% 29.91 in 10.0 mi South 17.3 mph 20.7 mph N/A   Clear
10:15 AM 69.8 °F - 55.4 °F 60% 29.91 in 10.0 mi South 17.3 mph 23.0 mph N/A   Clear
10:35 AM 71.6 °F - 55.4 °F 57% 29.91 in 10.0 mi South 15.0 mph 23.0 mph N/A   Clear
11:15 AM 75.2 °F - 53.6 °F 47% 29.89 in 10.0 mi South 16.1 mph - N/A   Clear
11:35 AM 77.0 °F - 53.6 °F 44% 29.88 in 10.0 mi South 16.1 mph - N/A   Clear
11:55 AM 77.0 °F - 53.6 °F 44% 29.87 in 10.0 mi South 17.3 mph 21.9 mph N/A   Clear
12:15 PM 78.8 °F - 53.6 °F 42% 29.87 in 10.0 mi South 15.0 mph 25.3 mph N/A   Clear
12:35 PM 78.8 °F - 53.6 °F 42% 29.85 in 10.0 mi South 18.4 mph 23.0 mph N/A   Clear
12:55 PM 80.6 °F 80.3 °F 53.6 °F 39% 29.84 in 10.0 mi South 18.4 mph 24.2 mph N/A   Clear
1:15 PM 80.6 °F - 51.8 °F 37% 29.83 in 10.0 mi South 18.4 mph 21.9 mph N/A   Clear
1:35 PM 80.6 °F - 51.8 °F 37% 29.82 in 10.0 mi South 21.9 mph 26.5 mph N/A   Clear
1:55 PM 82.4 °F - 51.8 °F 35% 29.82 in 10.0 mi South 19.6 mph 26.5 mph N/A   Clear
2:15 PM 82.4 °F - 51.8 °F 35% 29.80 in 10.0 mi South 20.7 mph 24.2 mph N/A   Clear
2:35 PM 82.4 °F - 51.8 °F 35% 29.79 in 10.0 mi South 20.7 mph 25.3 mph N/A   Clear
2:55 PM 84.2 °F - 51.8 °F 33% 29.78 in 10.0 mi South 21.9 mph 27.6 mph N/A   Clear
3:15 PM 86.0 °F - 50.0 °F 29% 29.77 in 10.0 mi South 20.7 mph 27.6 mph N/A   Clear
3:55 PM 86.0 °F - 48.2 °F 27% 29.77 in 10.0 mi South 21.9 mph 29.9 mph N/A   Clear
4:15 PM 86.0 °F - 46.4 °F 25% 29.77 in 10.0 mi South 24.2 mph 28.8 mph N/A   Clear
4:35 PM 86.0 °F - 46.4 °F 25% 29.76 in 10.0 mi South 19.6 mph - N/A   Clear
4:55 PM 86.0 °F - 46.4 °F 25% 29.76 in 10.0 mi South 18.4 mph 26.5 mph N/A   Clear
5:15 PM 84.2 °F - 46.4 °F 27% 29.77 in 10.0 mi South 18.4 mph 28.8 mph N/A   Clear
5:35 PM 82.4 °F - 46.4 °F 28% 29.77 in 10.0 mi South 19.6 mph - N/A   Clear
5:55 PM 80.6 °F - 46.4 °F 30% 29.78 in 10.0 mi South 16.1 mph - N/A   Clear
6:15 PM 80.6 °F - 48.2 °F 32% 29.79 in 10.0 mi South 19.6 mph 24.2 mph N/A   Clear
6:35 PM 78.8 °F - 50.0 °F 36% 29.79 in 10.0 mi South 21.9 mph 26.5 mph N/A   Clear
6:55 PM 78.8 °F - 51.8 °F 39% 29.81 in 10.0 mi South 17.3 mph 25.3 mph N/A   Clear
7:15 PM 77.0 °F - 53.6 °F 44% 29.81 in 10.0 mi South 20.7 mph 27.6 mph N/A   Clear
7:35 PM 77.0 °F - 53.6 °F 44% 29.81 in 10.0 mi South 20.7 mph 25.3 mph N/A   Clear
7:55 PM 77.0 °F - 53.6 °F 44% 29.82 in 10.0 mi South 21.9 mph 27.6 mph N/A   Clear
8:15 PM 75.2 °F - 53.6 °F 47% 29.82 in 10.0 mi South 20.7 mph 25.3 mph N/A   Clear
8:35 PM 75.2 °F - 53.6 °F 47% 29.83 in 10.0 mi South 19.6 mph - N/A   Clear
8:55 PM 73.4 °F - 53.6 °F 50% 29.83 in 10.0 mi South 19.6 mph - N/A   Clear
9:15 PM 73.4 °F - 53.6 °F 50% 29.84 in 10.0 mi South 17.3 mph - N/A   Clear
9:35 PM 73.4 °F - 53.6 °F 50% 29.84 in 10.0 mi South 18.4 mph - N/A   Clear
9:55 PM 73.4 °F - 53.6 °F 50% 29.84 in 10.0 mi South 19.6 mph 25.3 mph N/A   Clear
10:15 PM 73.4 °F - 53.6 °F 50% 29.84 in 10.0 mi South 21.9 mph 26.5 mph N/A   Clear
10:35 PM 73.4 °F - 53.6 °F 50% 29.85 in 10.0 mi South 20.7 mph - N/A   Unknown
10:55 PM 71.6 °F - 53.6 °F 53% 29.85 in 10.0 mi South 21.9 mph 26.5 mph N/A   Clear